createdAt,value
2018-07-11T00:00:21.533Z,99.90
2018-07-11T00:02:49.805Z,99.90
2018-07-11T00:05:18.090Z,99.90
2018-07-11T00:07:46.351Z,99.90
2018-07-11T00:10:14.545Z,99.90
2018-07-11T00:12:42.811Z,99.90
2018-07-11T00:15:11.067Z,99.90
2018-07-11T00:17:39.331Z,99.90
2018-07-11T00:20:07.607Z,99.90
2018-07-11T00:22:35.923Z,99.90
2018-07-11T00:25:04.203Z,99.90
2018-07-11T00:27:32.450Z,99.90
2018-07-11T00:30:00.707Z,99.90
2018-07-11T00:32:28.993Z,99.90
2018-07-11T00:34:57.285Z,99.90
2018-07-11T00:37:25.574Z,99.90
2018-07-11T00:39:53.772Z,99.90
2018-07-11T00:42:22.059Z,99.90
2018-07-11T00:44:50.259Z,99.90
2018-07-11T00:47:18.548Z,99.90
2018-07-11T00:49:47.778Z,99.90
2018-07-11T00:52:16.061Z,99.90
2018-07-11T00:54:44.300Z,99.90
2018-07-11T00:57:12.684Z,99.90
2018-07-11T00:59:42.010Z,99.90
2018-07-11T01:02:10.204Z,99.90
2018-07-11T01:04:38.514Z,99.90
2018-07-11T01:07:07.499Z,99.90
2018-07-11T01:12:19.844Z,99.90
2018-07-11T01:14:48.232Z,99.90
2018-07-11T01:17:21.750Z,99.90
2018-07-11T01:19:50.108Z,99.90
2018-07-11T01:22:18.372Z,99.90
2018-07-11T01:24:46.615Z,99.90
2018-07-11T01:27:14.906Z,99.90
2018-07-11T01:29:43.116Z,99.90
2018-07-11T01:32:11.397Z,99.90
2018-07-11T01:34:39.572Z,99.90
2018-07-11T01:37:07.948Z,99.90
2018-07-11T01:39:36.190Z,99.90
2018-07-11T01:42:04.446Z,99.90
2018-07-11T01:44:32.718Z,99.90
2018-07-11T01:47:00.980Z,99.90
2018-07-11T01:49:29.521Z,99.90
2018-07-11T01:52:09.014Z,99.90
2018-07-11T01:54:37.318Z,99.90
2018-07-11T01:57:05.631Z,99.90
2018-07-11T01:59:36.137Z,99.90
2018-07-11T02:02:04.805Z,99.90
2018-07-11T02:04:35.196Z,99.90
2018-07-11T02:07:03.500Z,99.90
2018-07-11T02:09:31.909Z,99.90
2018-07-11T02:12:00.196Z,99.90
2018-07-11T02:14:28.396Z,99.90
2018-07-11T02:16:56.728Z,99.90
2018-07-11T02:19:25.004Z,99.90
2018-07-11T02:21:53.518Z,99.90
2018-07-11T02:24:23.048Z,99.90
2018-07-11T02:26:51.608Z,99.90
2018-07-11T02:29:20.066Z,99.90
2018-07-11T02:31:48.377Z,99.90
2018-07-11T02:36:44.543Z,99.90
2018-07-11T02:39:12.800Z,99.90
2018-07-11T02:44:09.061Z,99.90
2018-07-11T02:46:42.715Z,99.90
2018-07-11T02:49:11.002Z,99.90
2018-07-11T02:51:39.318Z,99.90
2018-07-11T02:54:07.608Z,99.90
2018-07-11T02:56:35.807Z,99.90
2018-07-11T02:59:04.082Z,99.90
2018-07-11T03:01:32.280Z,99.90
2018-07-11T03:04:00.537Z,99.90
2018-07-11T03:08:56.870Z,99.90
2018-07-11T03:11:25.058Z,99.90
2018-07-11T03:13:53.742Z,99.90
2018-07-11T03:16:22.006Z,99.90
2018-07-11T03:18:50.274Z,99.90
2018-07-11T03:21:18.560Z,99.90
2018-07-11T03:23:46.766Z,99.90
2018-07-11T03:26:15.082Z,99.90
2018-07-11T03:28:43.298Z,99.90
2018-07-11T03:31:11.502Z,99.90
2018-07-11T03:33:39.719Z,99.90
2018-07-11T03:36:07.966Z,99.90
2018-07-11T03:38:36.380Z,99.90
2018-07-11T03:41:04.616Z,99.90
2018-07-11T03:43:32.911Z,99.90
2018-07-11T03:46:01.186Z,99.90
2018-07-11T03:48:29.452Z,99.90
2018-07-11T03:50:57.881Z,99.90
2018-07-11T03:55:54.268Z,99.90
2018-07-11T03:58:22.542Z,99.90
2018-07-11T04:00:50.742Z,99.90
2018-07-11T04:03:18.924Z,99.90
2018-07-11T04:05:47.236Z,99.90
2018-07-11T04:08:15.521Z,99.90
2018-07-11T04:10:43.793Z,99.90
2018-07-11T04:13:16.545Z,99.90
2018-07-11T04:15:44.812Z,99.90
2018-07-11T04:18:25.585Z,99.90
2018-07-11T04:20:53.936Z,99.90
2018-07-11T04:25:50.282Z,99.90
2018-07-11T04:28:18.478Z,99.90
2018-07-11T04:30:46.805Z,99.90
2018-07-11T04:33:15.227Z,99.90
2018-07-11T04:35:43.436Z,99.90
2018-07-11T04:38:11.658Z,99.90
2018-07-11T04:40:39.937Z,99.90
2018-07-11T04:43:08.248Z,99.90
2018-07-11T04:45:36.744Z,99.90
2018-07-11T04:48:06.442Z,99.90
2018-07-11T04:55:33.575Z,99.90
2018-07-11T04:58:01.762Z,99.90
2018-07-11T05:00:30.152Z,99.90
2018-07-11T05:02:58.501Z,99.90
2018-07-11T05:07:55.089Z,99.90
2018-07-11T05:10:23.540Z,99.90
2018-07-11T05:12:51.965Z,99.90
2018-07-11T05:15:20.245Z,99.90
2018-07-11T05:17:48.477Z,99.90
2018-07-11T05:20:16.693Z,99.90
2018-07-11T05:22:44.887Z,99.90
2018-07-11T05:25:13.194Z,99.90
2018-07-11T05:27:41.450Z,99.90
2018-07-11T05:30:09.593Z,99.80
2018-07-11T05:35:05.915Z,99.50
2018-07-11T05:37:34.190Z,99.30
2018-07-11T05:40:02.445Z,99.00
2018-07-11T05:42:30.696Z,98.70
2018-07-11T05:44:58.910Z,98.70
2018-07-11T05:47:27.147Z,98.70
2018-07-11T05:52:23.284Z,99.10
2018-07-11T05:54:51.489Z,99.20
2018-07-11T05:57:19.740Z,99.30
2018-07-11T05:59:48.014Z,98.70
2018-07-11T06:02:16.196Z,98.50
2018-07-11T06:04:44.381Z,98.40
2018-07-11T06:07:12.890Z,98.50
2018-07-11T06:09:41.073Z,98.70
2018-07-11T06:12:09.277Z,98.70
2018-07-11T06:14:37.513Z,98.30
2018-07-11T06:17:05.801Z,97.90
2018-07-11T06:19:34.036Z,97.10
2018-07-11T06:22:02.229Z,96.90
2018-07-11T06:24:30.499Z,97.10
2018-07-11T06:26:58.685Z,97.20
2018-07-11T06:29:26.963Z,96.60
2018-07-11T06:31:55.267Z,96.60
2018-07-11T06:34:23.474Z,96.90
2018-07-11T06:36:51.841Z,97.10
2018-07-11T06:39:20.073Z,96.80
2018-07-11T06:41:48.357Z,96.80
2018-07-11T06:44:16.553Z,96.60
2018-07-11T06:46:44.768Z,96.50
2018-07-11T06:49:12.972Z,96.50
2018-07-11T06:51:41.219Z,96.50
2018-07-11T06:56:37.400Z,96.20
2018-07-11T06:59:05.581Z,96.20
2018-07-11T07:01:33.865Z,95.90
2018-07-11T07:04:02.063Z,95.80
2018-07-11T07:06:30.280Z,95.20
2018-07-11T07:08:58.456Z,95.30
2018-07-11T07:11:26.662Z,94.00
2018-07-11T07:13:54.921Z,93.20
2018-07-11T07:18:51.137Z,92.90
2018-07-11T07:21:19.366Z,92.80
2018-07-11T07:26:15.594Z,92.00
2018-07-11T07:28:43.860Z,91.90
2018-07-11T07:31:12.060Z,92.20
2018-07-11T07:33:40.341Z,92.00
2018-07-11T07:36:08.626Z,92.20
2018-07-11T07:38:40.902Z,92.20
2018-07-11T07:41:09.520Z,92.10
2018-07-11T07:43:38.190Z,91.60
2018-07-11T07:46:06.747Z,91.10
2018-07-11T07:48:35.191Z,90.70
2018-07-11T07:51:03.385Z,90.60
2018-07-11T07:53:31.687Z,90.50
2018-07-11T07:55:59.888Z,90.40
2018-07-11T07:58:28.186Z,90.30
2018-07-11T08:00:56.818Z,90.20
2018-07-11T08:03:25.031Z,90.40
2018-07-11T08:05:53.294Z,89.80
2018-07-11T08:08:21.540Z,90.00
2018-07-11T08:10:49.770Z,89.40
2018-07-11T08:13:17.990Z,89.50
2018-07-11T08:15:46.274Z,89.10
2018-07-11T08:18:14.530Z,89.00
2018-07-11T08:20:42.730Z,88.90
2018-07-11T08:23:37.034Z,88.50
2018-07-11T08:26:16.568Z,89.30
2018-07-11T08:31:03.153Z,89.90
2018-07-11T08:33:42.910Z,90.10
2018-07-11T08:36:51.871Z,90.30
2018-07-11T08:40:08.892Z,90.30
2018-07-11T08:42:54.328Z,90.30
2018-07-11T08:45:32.942Z,90.40
2018-07-11T08:48:12.168Z,90.50
2018-07-11T08:52:58.842Z,90.40
2018-07-11T08:55:38.369Z,90.80
2018-07-11T09:00:21.686Z,92.30
2018-07-11T09:03:19.584Z,92.90
2018-07-11T09:05:59.999Z,93.00
2018-07-11T09:10:41.964Z,93.10
2018-07-11T09:14:27.069Z,93.20
2018-07-11T09:17:08.918Z,93.40
2018-07-11T09:19:48.608Z,93.40
2018-07-11T09:22:46.135Z,93.20
2018-07-11T09:25:14.342Z,93.10
2018-07-11T09:27:42.518Z,92.70
2018-07-11T09:30:10.720Z,92.50
2018-07-11T09:32:38.962Z,92.50
2018-07-11T09:35:07.237Z,92.50
2018-07-11T09:37:35.576Z,92.50
2018-07-11T09:40:03.736Z,92.40
2018-07-11T09:42:31.955Z,92.30
2018-07-11T09:45:00.162Z,91.30
2018-07-11T09:47:29.751Z,91.00
2018-07-11T09:49:58.061Z,90.40
2018-07-11T09:52:26.317Z,89.60
2018-07-11T09:54:54.546Z,88.60
2018-07-11T09:57:23.522Z,88.80
2018-07-11T09:59:51.781Z,89.00
2018-07-11T10:02:21.908Z,89.60
2018-07-11T10:04:50.510Z,88.90
2018-07-11T10:07:18.786Z,87.20
2018-07-11T10:09:47.078Z,85.60
2018-07-11T10:12:15.321Z,86.30
2018-07-11T10:14:43.529Z,83.90
2018-07-11T10:17:11.914Z,84.40
2018-07-11T10:19:40.116Z,85.90
2018-07-11T10:22:08.316Z,86.80
2018-07-11T10:24:36.528Z,86.40
2018-07-11T10:27:04.804Z,86.40
2018-07-11T10:29:33.013Z,85.90
2018-07-11T10:32:01.265Z,84.50
2018-07-11T10:34:29.510Z,81.80
2018-07-11T10:36:57.841Z,78.10
2018-07-11T10:39:26.085Z,75.00
2018-07-11T10:44:22.357Z,77.30
2018-07-11T10:46:52.999Z,77.00
2018-07-11T10:49:21.286Z,76.60
2018-07-11T10:51:49.491Z,76.40
2018-07-11T10:54:17.751Z,76.10
2018-07-11T10:56:45.993Z,75.20
2018-07-11T10:59:14.223Z,72.70
2018-07-11T11:01:42.508Z,72.90
2018-07-11T11:04:10.833Z,73.50
2018-07-11T11:06:39.023Z,71.20
2018-07-11T11:09:07.355Z,67.20
2018-07-11T11:11:35.648Z,62.50
2018-07-11T11:14:03.835Z,61.90
2018-07-11T11:16:32.041Z,61.20
2018-07-11T11:19:00.204Z,57.20
2018-07-11T11:23:56.383Z,54.40
2018-07-11T11:26:24.569Z,56.60
2018-07-11T11:31:20.823Z,59.20
2018-07-11T11:33:49.132Z,62.40
2018-07-11T11:36:17.337Z,65.90
2018-07-11T11:38:45.621Z,68.20
2018-07-11T11:41:13.811Z,69.70
2018-07-11T11:43:42.103Z,71.50
2018-07-11T11:46:10.315Z,72.30
2018-07-11T11:48:38.576Z,73.00
2018-07-11T11:51:06.824Z,74.30
2018-07-11T11:53:35.072Z,74.00
2018-07-11T11:56:03.269Z,73.90
2018-07-11T11:58:31.484Z,73.50
2018-07-11T12:00:59.683Z,73.80
2018-07-11T12:03:27.907Z,73.30
2018-07-11T12:05:56.171Z,73.00
2018-07-11T12:08:24.431Z,72.20
2018-07-11T12:10:52.631Z,70.70
2018-07-11T12:13:20.813Z,70.30
2018-07-11T12:15:49.481Z,71.10
2018-07-11T12:18:17.719Z,71.10
2018-07-11T12:20:45.924Z,71.00
2018-07-11T12:26:20.475Z,72.00
2018-07-11T12:28:48.735Z,73.30
2018-07-11T12:31:16.927Z,73.50
2018-07-11T12:33:45.151Z,73.60
2018-07-11T12:36:13.401Z,74.00
2018-07-11T12:38:41.691Z,74.60
2018-07-11T12:41:09.897Z,74.50
2018-07-11T12:43:38.128Z,75.20
2018-07-11T12:46:06.369Z,74.10
2018-07-11T12:48:40.085Z,71.50
2018-07-11T12:51:08.385Z,68.80
2018-07-11T12:53:36.679Z,68.70
2018-07-11T12:56:05.203Z,68.40
2018-07-11T12:58:33.546Z,68.40
2018-07-11T13:01:01.717Z,68.20
2018-07-11T13:03:29.927Z,67.80
2018-07-11T13:05:58.167Z,67.10
2018-07-11T13:08:26.524Z,67.20
2018-07-11T13:10:54.697Z,67.00
2018-07-11T13:13:22.912Z,66.70
2018-07-11T13:18:19.142Z,67.20
2018-07-11T13:20:47.331Z,66.90
2018-07-11T13:23:15.575Z,66.30
2018-07-11T13:25:43.842Z,66.80
2018-07-11T13:28:12.037Z,67.20
2018-07-11T13:30:40.307Z,66.40
2018-07-11T13:33:08.595Z,66.20
2018-07-11T13:35:36.814Z,66.70
2018-07-11T13:38:05.088Z,67.00
2018-07-11T13:40:33.323Z,67.00
2018-07-11T13:43:01.531Z,67.60
2018-07-11T13:45:29.716Z,68.20
2018-07-11T13:48:00.971Z,69.10
2018-07-11T13:50:29.247Z,69.00
2018-07-11T13:52:58.074Z,69.40
2018-07-11T13:55:26.318Z,70.50
2018-07-11T13:57:54.519Z,71.40
2018-07-11T14:00:22.744Z,71.50
2018-07-11T14:02:51.188Z,71.70
2018-07-11T14:05:19.780Z,72.40
2018-07-11T14:07:48.048Z,72.70
2018-07-11T14:10:16.444Z,72.70
2018-07-11T14:12:45.104Z,73.00
2018-07-11T14:15:13.316Z,73.40
2018-07-11T14:17:41.599Z,73.70
2018-07-11T14:20:10.125Z,74.20
2018-07-11T14:22:38.909Z,74.00
2018-07-11T14:25:07.184Z,74.50
2018-07-11T14:27:41.249Z,74.60
2018-07-11T14:30:09.474Z,75.60
2018-07-11T14:32:41.158Z,75.60
2018-07-11T14:35:09.462Z,75.20
2018-07-11T14:37:38.886Z,75.70
2018-07-11T14:40:07.125Z,76.10
2018-07-11T14:42:38.832Z,76.30
2018-07-11T14:45:07.124Z,76.30
2018-07-11T14:47:55.238Z,76.70
2018-07-11T14:50:24.152Z,77.00
2018-07-11T14:52:55.344Z,77.40
2018-07-11T14:55:23.551Z,77.90
2018-07-11T14:57:51.752Z,78.40
2018-07-11T15:00:19.940Z,78.60
2018-07-11T15:02:48.273Z,79.00
2018-07-11T15:05:16.548Z,79.20
2018-07-11T15:07:44.763Z,79.50
2018-07-11T15:10:13.028Z,79.30
2018-07-11T15:12:41.312Z,79.30
2018-07-11T15:15:09.570Z,79.40
2018-07-11T15:17:37.868Z,79.70
2018-07-11T15:20:06.178Z,79.60
2018-07-11T15:22:34.379Z,80.10
2018-07-11T15:25:02.649Z,79.20
2018-07-11T15:27:30.858Z,78.80
2018-07-11T15:29:59.147Z,79.10
2018-07-11T15:32:27.423Z,78.80
2018-07-11T15:34:55.823Z,78.30
2018-07-11T15:37:24.274Z,77.60
2018-07-11T15:39:53.055Z,77.20
2018-07-11T15:42:21.572Z,76.80
2018-07-11T15:44:51.061Z,76.60
2018-07-11T15:47:21.452Z,76.70
2018-07-11T15:49:50.925Z,75.40
2018-07-11T15:52:20.736Z,75.00
2018-07-11T15:54:49.145Z,74.10
2018-07-11T15:57:20.766Z,73.30
2018-07-11T16:00:01.192Z,73.30
2018-07-11T16:02:30.286Z,73.00
2018-07-11T16:04:58.571Z,73.10
2018-07-11T16:07:28.814Z,72.60
2018-07-11T16:09:59.366Z,72.30
2018-07-11T16:12:27.658Z,72.80
2018-07-11T16:14:56.622Z,72.70
2018-07-11T16:17:24.867Z,73.00
2018-07-11T16:19:53.218Z,73.20
2018-07-11T16:24:49.984Z,72.90
2018-07-11T16:27:19.203Z,72.60
2018-07-11T16:29:47.390Z,72.00
2018-07-11T16:32:15.618Z,72.20
2018-07-11T16:34:44.030Z,72.30
2018-07-11T16:37:12.519Z,72.40
2018-07-11T16:39:40.827Z,73.00
2018-07-11T16:42:09.000Z,72.00
2018-07-11T16:44:37.344Z,71.80
2018-07-11T16:47:07.104Z,71.20
2018-07-11T16:49:39.192Z,71.10
2018-07-11T16:52:07.443Z,71.10
2018-07-11T16:57:04.975Z,71.80
2018-07-11T16:59:45.598Z,73.00
2018-07-11T17:02:16.636Z,72.60
2018-07-11T17:04:44.972Z,71.50
2018-07-11T17:07:18.330Z,71.20
2018-07-11T17:09:48.286Z,71.00
2018-07-11T17:12:17.433Z,71.40
2018-07-11T17:14:46.456Z,70.60
2018-07-11T17:17:17.625Z,70.30
2018-07-11T17:20:19.628Z,69.80
2018-07-11T17:25:21.043Z,71.70
2018-07-11T17:27:52.856Z,72.90
2018-07-11T17:30:21.232Z,72.80
2018-07-11T17:32:49.531Z,74.30
2018-07-11T17:35:17.826Z,74.80
2018-07-11T17:37:46.124Z,74.40
2018-07-11T17:40:14.376Z,75.80
2018-07-11T17:42:44.507Z,76.10
2018-07-11T17:45:14.140Z,76.80
2018-07-11T17:49:57.211Z,76.40
2018-07-11T17:52:26.916Z,75.20
2018-07-11T17:55:15.836Z,72.20
2018-07-11T17:57:50.562Z,70.90
2018-07-11T18:00:32.946Z,70.70
2018-07-11T18:03:18.300Z,70.50
2018-07-11T18:05:55.270Z,70.40
2018-07-11T18:08:29.682Z,69.80
2018-07-11T18:10:58.550Z,69.30
2018-07-11T18:13:29.468Z,69.10
2018-07-11T18:16:03.406Z,69.10
2018-07-11T18:18:39.734Z,68.50
2018-07-11T18:23:25.808Z,68.50
2018-07-11T18:26:00.693Z,68.90
2018-07-11T18:30:44.386Z,69.80
2018-07-11T18:33:25.198Z,70.20
2018-07-11T18:36:01.816Z,70.20
2018-07-11T18:38:40.706Z,70.40
2018-07-11T18:43:53.701Z,70.60
2018-07-11T18:47:33.095Z,70.80
2018-07-11T18:52:28.688Z,70.70
2018-07-11T18:57:09.408Z,70.50
2018-07-11T19:00:00.687Z,70.50
2018-07-11T19:03:39.830Z,71.00
2018-07-11T19:06:29.375Z,71.10
2018-07-11T19:09:10.889Z,71.20
2018-07-11T19:11:52.293Z,71.40
2018-07-11T19:18:10.093Z,71.60
2018-07-11T19:20:43.110Z,71.60
2018-07-11T19:24:26.245Z,71.90
2018-07-11T19:27:00.143Z,72.00
2018-07-11T19:29:52.610Z,72.10
2018-07-11T19:34:32.707Z,72.40
2018-07-11T19:37:05.633Z,72.60
2018-07-11T19:39:41.443Z,74.50
2018-07-11T19:49:03.288Z,76.40
2018-07-11T19:51:42.882Z,77.80
2018-07-11T19:54:17.394Z,79.00
2018-07-11T19:56:47.319Z,79.60
2018-07-11T19:59:15.873Z,80.50
2018-07-11T20:01:44.643Z,80.90
2018-07-11T20:04:13.697Z,81.20
2018-07-11T20:06:42.035Z,81.30
2018-07-11T20:09:10.377Z,81.80
2018-07-11T20:11:38.678Z,81.90
2018-07-11T20:14:06.989Z,82.70
2018-07-11T20:16:35.270Z,82.70
2018-07-11T20:19:03.664Z,82.70
2018-07-11T20:21:31.889Z,82.90
2018-07-11T20:24:00.345Z,82.90
2018-07-11T20:26:28.555Z,83.00
2018-07-11T20:28:57.029Z,83.40
2018-07-11T20:31:25.295Z,83.30
2018-07-11T20:33:53.547Z,83.50
2018-07-11T20:36:21.764Z,83.60
2018-07-11T20:38:49.949Z,83.60
2018-07-11T20:43:46.211Z,83.40
2018-07-11T20:46:14.469Z,83.60
2018-07-11T20:48:42.671Z,83.60
2018-07-11T20:51:10.973Z,84.00
2018-07-11T20:53:39.251Z,84.30
2018-07-11T20:56:07.504Z,84.40
2018-07-11T21:05:23.090Z,85.10
2018-07-11T21:10:08.653Z,85.70
2018-07-11T21:12:46.125Z,86.50
2018-07-11T21:17:28.943Z,87.00
2018-07-11T21:19:57.213Z,87.50
2018-07-11T21:22:25.475Z,89.90
2018-07-11T21:24:53.724Z,90.60
2018-07-11T21:27:21.974Z,91.10
2018-07-11T21:32:18.239Z,91.60
2018-07-11T21:34:46.537Z,91.70
2018-07-11T21:37:14.811Z,91.80
2018-07-11T21:39:43.077Z,91.90
2018-07-11T21:42:11.289Z,92.10
2018-07-11T21:44:39.471Z,92.10
2018-07-11T21:49:36.038Z,92.30
2018-07-11T21:52:04.303Z,92.50
2018-07-11T21:57:00.543Z,92.60
2018-07-11T21:59:28.788Z,92.70
2018-07-11T22:01:57.073Z,92.90
2018-07-11T22:04:25.335Z,93.10
2018-07-11T22:06:53.590Z,93.40
2018-07-11T22:09:21.864Z,93.60
2018-07-11T22:11:50.125Z,93.80
2018-07-11T22:14:18.292Z,94.00
2018-07-11T22:16:46.528Z,94.10
2018-07-11T22:19:14.728Z,94.20
2018-07-11T22:21:41.944Z,94.20
2018-07-11T22:24:09.169Z,94.30
2018-07-11T22:26:36.355Z,94.40
2018-07-11T22:29:03.592Z,94.50
2018-07-11T22:31:30.771Z,94.50
2018-07-11T22:33:57.993Z,94.50
2018-07-11T22:36:25.244Z,94.60
2018-07-11T22:38:52.467Z,94.50
2018-07-11T22:41:19.675Z,94.70
2018-07-11T22:43:46.895Z,94.80
2018-07-11T22:46:14.130Z,95.20
2018-07-11T22:48:41.367Z,94.80
2018-07-11T22:51:08.559Z,94.90
2018-07-11T22:53:35.803Z,95.10
2018-07-11T22:56:03.109Z,95.10
2018-07-11T22:58:30.334Z,95.10
2018-07-11T23:00:57.517Z,95.20
2018-07-11T23:03:24.736Z,95.40
2018-07-11T23:05:51.931Z,95.40
2018-07-11T23:08:19.242Z,95.50
2018-07-11T23:10:46.367Z,95.60
2018-07-11T23:13:13.571Z,95.80
2018-07-11T23:15:40.785Z,95.80
2018-07-11T23:18:08.031Z,96.10
2018-07-11T23:20:35.306Z,96.50
2018-07-11T23:23:02.505Z,97.20
2018-07-11T23:25:29.722Z,97.10
2018-07-11T23:27:56.932Z,97.20
2018-07-11T23:30:24.138Z,97.40
2018-07-11T23:32:51.320Z,97.50
2018-07-11T23:35:18.524Z,97.60
2018-07-11T23:37:45.725Z,97.60
2018-07-11T23:40:12.930Z,97.60
2018-07-11T23:42:40.145Z,97.70
2018-07-11T23:45:07.372Z,97.70
2018-07-11T23:47:34.566Z,98.10
2018-07-11T23:50:01.776Z,98.80
2018-07-11T23:52:29.014Z,99.30
2018-07-11T23:54:56.238Z,99.50
2018-07-11T23:57:23.464Z,99.90
2018-07-11T23:59:50.764Z,99.90
